sensor_id;sensor_type;location;lat;lon;timestamp;pressure;altitude;pressure_sealevel;temperature;humidity
75699;BME280;64313;51.018;13.742;2023-07-30T00:02:17;99097.13;;;18.27;74.61
75699;BME280;64313;51.018;13.742;2023-07-30T00:04:46;99100.91;;;18.26;74.75
75699;BME280;64313;51.018;13.742;2023-07-30T00:07:12;99090.63;;;18.23;74.05
75699;BME280;64313;51.018;13.742;2023-07-30T00:09:38;99090.59;;;18.18;75.03
75699;BME280;64313;51.018;13.742;2023-07-30T00:12:05;99078.66;;;18.14;74.85
75699;BME280;64313;51.018;13.742;2023-07-30T00:14:31;99083.81;;;18.10;75.12
75699;BME280;64313;51.018;13.742;2023-07-30T00:16:56;99093.00;;;18.04;75.27
75699;BME280;64313;51.018;13.742;2023-07-30T00:19:21;99095.13;;;18.02;75.64
75699;BME280;64313;51.018;13.742;2023-07-30T00:21:47;99091.31;;;17.98;75.35
75699;BME280;64313;51.018;13.742;2023-07-30T00:24:13;99091.56;;;17.97;75.78
75699;BME280;64313;51.018;13.742;2023-07-30T00:26:38;99092.63;;;17.90;75.88
75699;BME280;64313;51.018;13.742;2023-07-30T00:29:04;99089.38;;;17.88;76.05
75699;BME280;64313;51.018;13.742;2023-07-30T00:31:29;99094.78;;;17.88;75.76
75699;BME280;64313;51.018;13.742;2023-07-30T00:33:55;99089.91;;;17.85;75.64
75699;BME280;64313;51.018;13.742;2023-07-30T00:36:20;99091.50;;;17.81;76.08
75699;BME280;64313;51.018;13.742;2023-07-30T00:38:45;99091.78;;;17.80;75.95
75699;BME280;64313;51.018;13.742;2023-07-30T00:41:11;99087.41;;;17.79;75.78
75699;BME280;64313;51.018;13.742;2023-07-30T00:43:36;99088.72;;;17.76;75.92
75699;BME280;64313;51.018;13.742;2023-07-30T00:46:02;99091.97;;;17.73;76.01
75699;BME280;64313;51.018;13.742;2023-07-30T00:48:30;99094.94;;;17.71;76.15
75699;BME280;64313;51.018;13.742;2023-07-30T00:50:57;99086.00;;;17.71;75.95
75699;BME280;64313;51.018;13.742;2023-07-30T00:53:24;99080.06;;;17.69;75.67
75699;BME280;64313;51.018;13.742;2023-07-30T00:55:51;99070.88;;;17.70;76.14
75699;BME280;64313;51.018;13.742;2023-07-30T00:58:16;99074.66;;;17.69;75.92
75699;BME280;64313;51.018;13.742;2023-07-30T01:00:42;99071.41;;;17.67;75.74
75699;BME280;64313;51.018;13.742;2023-07-30T01:03:08;99075.69;;;17.63;76.15
75699;BME280;64313;51.018;13.742;2023-07-30T01:05:34;99076.22;;;17.60;76.16
75699;BME280;64313;51.018;13.742;2023-07-30T01:08:02;99073.75;;;17.58;75.66
75699;BME280;64313;51.018;13.742;2023-07-30T01:10:29;99077.00;;;17.55;76.23
75699;BME280;64313;51.018;13.742;2023-07-30T01:12:55;99073.19;;;17.51;76.45
75699;BME280;64313;51.018;13.742;2023-07-30T01:15:21;99073.47;;;17.49;76.33
75699;BME280;64313;51.018;13.742;2023-07-30T01:17:46;99076.41;;;17.48;76.65
75699;BME280;64313;51.018;13.742;2023-07-30T01:20:12;99079.38;;;17.46;76.90
75699;BME280;64313;51.018;13.742;2023-07-30T01:22:37;99079.06;;;17.43;76.82
75699;BME280;64313;51.018;13.742;2023-07-30T01:25:03;99078.25;;;17.42;76.82
75699;BME280;64313;51.018;13.742;2023-07-30T01:27:31;99083.41;;;17.44;77.04
75699;BME280;64313;51.018;13.742;2023-07-30T01:30:09;99089.06;;;17.42;76.60
75699;BME280;64313;51.018;13.742;2023-07-30T01:32:37;99094.19;;;17.39;76.25
75699;BME280;64313;51.018;13.742;2023-07-30T01:35:07;99103.09;;;17.39;76.03
75699;BME280;64313;51.018;13.742;2023-07-30T01:37:33;99104.44;;;17.37;76.94
75699;BME280;64313;51.018;13.742;2023-07-30T01:39:59;99100.88;;;17.31;76.66
75699;BME280;64313;51.018;13.742;2023-07-30T01:42:29;99098.44;;;17.29;76.99
75699;BME280;64313;51.018;13.742;2023-07-30T01:44:55;99108.69;;;17.27;76.79
75699;BME280;64313;51.018;13.742;2023-07-30T01:47:20;99106.50;;;17.24;76.97
75699;BME280;64313;51.018;13.742;2023-07-30T01:49:45;99118.13;;;17.25;76.77
75699;BME280;64313;51.018;13.742;2023-07-30T01:52:11;99114.03;;;17.22;77.32
75699;BME280;64313;51.018;13.742;2023-07-30T01:54:36;99122.16;;;17.22;76.97
75699;BME280;64313;51.018;13.742;2023-07-30T01:57:02;99122.91;;;17.18;77.76
75699;BME280;64313;51.018;13.742;2023-07-30T01:59:27;99119.16;;;17.19;77.98
75699;BME280;64313;51.018;13.742;2023-07-30T02:01:52;99123.44;;;17.15;77.83
75699;BME280;64313;51.018;13.742;2023-07-30T02:04:18;99114.19;;;17.11;77.64
75699;BME280;64313;51.018;13.742;2023-07-30T02:06:43;99112.59;;;17.09;78.08
75699;BME280;64313;51.018;13.742;2023-07-30T02:09:08;99108.00;;;17.10;77.96
75699;BME280;64313;51.018;13.742;2023-07-30T02:11:34;99113.41;;;17.10;78.41
75699;BME280;64313;51.018;13.742;2023-07-30T02:13:59;99108.50;;;17.07;79.17
75699;BME280;64313;51.018;13.742;2023-07-30T02:16:25;99107.94;;;17.05;78.63
75699;BME280;64313;51.018;13.742;2023-07-30T02:18:50;99111.75;;;17.04;79.53
75699;BME280;64313;51.018;13.742;2023-07-30T02:21:16;99106.34;;;17.04;79.31
75699;BME280;64313;51.018;13.742;2023-07-30T02:23:41;99116.84;;;17.05;79.31
75699;BME280;64313;51.018;13.742;2023-07-30T02:26:06;99114.16;;;17.05;78.75
75699;BME280;64313;51.018;13.742;2023-07-30T02:28:32;99114.16;;;17.05;79.09
75699;BME280;64313;51.018;13.742;2023-07-30T02:30:57;99112.53;;;17.04;79.45
75699;BME280;64313;51.018;13.742;2023-07-30T02:33:22;99115.00;;;17.06;78.82
75699;BME280;64313;51.018;13.742;2023-07-30T02:35:48;99121.22;;;17.06;79.52
75699;BME280;64313;51.018;13.742;2023-07-30T02:38:14;99116.31;;;17.03;79.46
75699;BME280;64313;51.018;13.742;2023-07-30T02:40:39;99122.53;;;17.04;79.53
75699;BME280;64313;51.018;13.742;2023-07-30T02:43:04;99129.84;;;17.03;79.13
75699;BME280;64313;51.018;13.742;2023-07-30T02:45:30;99124.97;;;17.05;79.73
75699;BME280;64313;51.018;13.742;2023-07-30T02:47:55;99129.84;;;17.03;79.84
75699;BME280;64313;51.018;13.742;2023-07-30T02:50:20;99130.06;;;17.02;79.07
75699;BME280;64313;51.018;13.742;2023-07-30T02:52:46;99137.09;;;17.03;79.79
75699;BME280;64313;51.018;13.742;2023-07-30T02:55:11;99137.38;;;17.01;79.65
75699;BME280;64313;51.018;13.742;2023-07-30T02:57:38;99129.50;;;17.00;79.67
75699;BME280;64313;51.018;13.742;2023-07-30T03:00:03;99131.41;;;16.99;79.50
75699;BME280;64313;51.018;13.742;2023-07-30T03:02:29;99126.81;;;17.00;79.98
75699;BME280;64313;51.018;13.742;2023-07-30T03:04:55;99138.41;;;17.00;79.98
75699;BME280;64313;51.018;13.742;2023-07-30T03:07:21;99131.41;;;16.99;80.20
75699;BME280;64313;51.018;13.742;2023-07-30T03:09:46;99130.59;;;16.99;80.17
75699;BME280;64313;51.018;13.742;2023-07-30T03:12:13;99136.00;;;16.99;79.90
75699;BME280;64313;51.018;13.742;2023-07-30T03:14:38;99134.91;;;17.00;80.63
75699;BME280;64313;51.018;13.742;2023-07-30T03:17:04;99125.19;;;16.99;80.46
75699;BME280;64313;51.018;13.742;2023-07-30T03:19:30;99130.59;;;16.99;80.90
75699;BME280;64313;51.018;13.742;2023-07-30T03:21:56;99128.94;;;16.98;80.89
75699;BME280;64313;51.018;13.742;2023-07-30T03:24:21;99126.50;;;16.96;81.28
75699;BME280;64313;51.018;13.742;2023-07-30T03:26:47;99117.34;;;16.97;80.65
75699;BME280;64313;51.018;13.742;2023-07-30T03:29:12;99117.91;;;16.99;80.47
75699;BME280;64313;51.018;13.742;2023-07-30T03:31:37;99118.72;;;17.00;79.67
75699;BME280;64313;51.018;13.742;2023-07-30T03:34:04;99120.03;;;16.97;80.99
75699;BME280;64313;51.018;13.742;2023-07-30T03:36:30;99119.22;;;16.97;80.90
75699;BME280;64313;51.018;13.742;2023-07-30T03:38:55;99118.41;;;16.96;80.87
75699;BME280;64313;51.018;13.742;2023-07-30T03:41:21;99122.72;;;16.97;81.05
75699;BME280;64313;51.018;13.742;2023-07-30T03:43:48;99125.44;;;16.97;80.82
75699;BME280;64313;51.018;13.742;2023-07-30T03:46:13;99127.06;;;16.98;80.73
75699;BME280;64313;51.018;13.742;2023-07-30T03:48:39;99128.69;;;16.99;80.70
75699;BME280;64313;51.018;13.742;2023-07-30T03:51:04;99124.34;;;16.98;81.14
75699;BME280;64313;51.018;13.742;2023-07-30T03:53:32;99124.63;;;16.97;80.96
75699;BME280;64313;51.018;13.742;2023-07-30T03:55:58;99126.81;;;17.00;80.91
75699;BME280;64313;51.018;13.742;2023-07-30T03:58:25;99131.97;;;17.01;81.13
75699;BME280;64313;51.018;13.742;2023-07-30T04:00:50;99133.81;;;17.01;81.08
75699;BME280;64313;51.018;13.742;2023-07-30T04:03:19;99140.88;;;17.02;80.73
75699;BME280;64313;51.018;13.742;2023-07-30T04:05:44;99142.19;;;16.99;81.66
75699;BME280;64313;51.018;13.742;2023-07-30T04:08:09;99146.78;;;16.99;81.71
75699;BME280;64313;51.018;13.742;2023-07-30T04:10:35;99142.19;;;16.99;81.31
75699;BME280;64313;51.018;13.742;2023-07-30T04:13:01;99143.81;;;17.00;81.13
75699;BME280;64313;51.018;13.742;2023-07-30T04:15:26;99137.59;;;17.00;81.67
75699;BME280;64313;51.018;13.742;2023-07-30T04:17:52;99138.41;;;17.00;81.79
75699;BME280;64313;51.018;13.742;2023-07-30T04:20:17;99137.38;;;17.01;82.07
75699;BME280;64313;51.018;13.742;2023-07-30T04:22:43;99140.88;;;17.02;82.22
75699;BME280;64313;51.018;13.742;2023-07-30T04:25:08;99147.66;;;17.04;81.64
75699;BME280;64313;51.018;13.742;2023-07-30T04:27:36;99157.38;;;17.05;81.36
